Time;durP1;ratioP1;P1;durP2;ratioP2;P2;SDS_P1;SDS_P2;PMS_P1;PMS_P2;Temp;Humidity;BMP_temperature;BMP_pressure;BME280_temperature;BME280_humidity;BME280_pressure;Samples;Min_cycle;Max_cycle;Signal;HPM_P1;HPM_P2
2023/01/14 00:01:37;;;;;;;13.47;9.57;;;;;;;;;;774252;181;896246;-62
2023/01/14 00:04:02;;;;;;;12.00;8.63;;;;;;;;;;766016;181;915677;-67
2023/01/14 00:06:28;;;;;;;11.37;8.37;;;;;;;;;;764147;182;918172;-67
2023/01/14 00:08:54;;;;;;;12.35;7.87;;;;;;;;;;766201;182;817422;-67
2023/01/14 00:11:45;;;;;;;13.17;6.90;;;;;;;;;;777532;180;1020331;-61
2023/01/14 00:13:46;;;;;;;11.13;7.30;;;;;;;;;;772937;180;915714;-61
2023/01/14 00:16:12;;;;;;;10.00;6.87;;;;;;;;;;772216;180;917420;-67
2023/01/14 00:18:37;;;;;;;9.80;6.53;;;;;;;;;;769095;182;919124;-67
2023/01/14 00:21:04;;;;;;;9.77;6.80;;;;;;;;;;777251;182;918161;-62
2023/01/14 00:23:30;;;;;;;9.33;6.90;;;;;;;;;;772906;182;919583;-62
2023/01/14 00:26:00;;;;;;;8.30;6.20;;;;;;;;;;772717;182;918987;-62
2023/01/14 00:28:26;;;;;;;11.27;6.73;;;;;;;;;;776971;182;918376;-62
2023/01/14 00:30:52;;;;;;;9.93;6.73;;;;;;;;;;761548;181;919425;-61
2023/01/14 00:33:17;;;;;;;12.23;6.82;;;;;;;;;;768877;181;922091;-67
2023/01/14 00:35:43;;;;;;;8.50;5.67;;;;;;;;;;761119;181;898050;-66
2023/01/14 00:38:09;;;;;;;11.10;7.00;;;;;;;;;;757547;184;809713;-64
2023/01/14 00:40:35;;;;;;;9.00;6.43;;;;;;;;;;759024;182;918016;-68
2023/01/14 00:43:01;;;;;;;12.07;6.70;;;;;;;;;;763855;184;914738;-67
2023/01/14 00:45:27;;;;;;;8.82;6.57;;;;;;;;;;768647;182;812691;-68
2023/01/14 00:47:52;;;;;;;12.33;6.93;;;;;;;;;;762706;184;919766;-63
2023/01/14 00:50:18;;;;;;;9.80;6.80;;;;;;;;;;765265;182;920201;-66
2023/01/14 00:52:44;;;;;;;9.90;7.03;;;;;;;;;;773970;183;917102;-62
2023/01/14 00:55:10;;;;;;;8.00;6.40;;;;;;;;;;770052;182;917138;-62
2023/01/14 00:57:36;;;;;;;11.83;8.00;;;;;;;;;;775554;179;870147;-66
2023/01/14 01:00:03;;;;;;;8.88;6.87;;;;;;;;;;779513;179;937542;-67
2023/01/14 01:02:28;;;;;;;8.40;6.68;;;;;;;;;;776286;181;918631;-62
2023/01/14 01:04:54;;;;;;;13.73;7.17;;;;;;;;;;768989;181;919990;-67
2023/01/14 01:07:20;;;;;;;10.40;7.30;;;;;;;;;;754901;184;918765;-62
2023/01/14 01:09:46;;;;;;;11.23;7.97;;;;;;;;;;764057;181;918986;-61
2023/01/14 01:12:12;;;;;;;11.50;7.80;;;;;;;;;;775875;180;819310;-62
2023/01/14 01:14:38;;;;;;;13.17;7.97;;;;;;;;;;760738;181;917270;-62
2023/01/14 01:17:03;;;;;;;12.10;7.40;;;;;;;;;;775639;181;919245;-67
2023/01/14 01:19:29;;;;;;;10.97;8.07;;;;;;;;;;772586;182;921160;-68
2023/01/14 01:21:55;;;;;;;13.13;8.50;;;;;;;;;;768598;182;919385;-67
2023/01/14 01:24:21;;;;;;;12.50;8.27;;;;;;;;;;773582;182;918395;-62
2023/01/14 01:26:48;;;;;;;10.57;8.17;;;;;;;;;;769884;181;919187;-68
2023/01/14 01:29:13;;;;;;;11.07;7.53;;;;;;;;;;773396;180;919110;-61
2023/01/14 01:31:39;;;;;;;10.73;8.30;;;;;;;;;;774783;180;817148;-67
2023/01/14 01:34:04;;;;;;;11.37;7.17;;;;;;;;;;778457;181;851435;-61
2023/01/14 01:36:30;;;;;;;11.43;7.60;;;;;;;;;;771049;180;817940;-62
2023/01/14 01:38:56;;;;;;;10.03;6.80;;;;;;;;;;769850;183;919113;-67
2023/01/14 01:41:23;;;;;;;11.30;7.93;;;;;;;;;;777858;182;859305;-62
2023/01/14 01:44:04;;;;;;;9.10;7.33;;;;;;;;;;774487;181;813947;-61
2023/01/14 01:46:30;;;;;;;10.20;7.20;;;;;;;;;;773500;181;918087;-62
2023/01/14 01:48:57;;;;;;;9.93;7.03;;;;;;;;;;772672;181;1023490;-61
2023/01/14 01:51:22;;;;;;;11.67;7.60;;;;;;;;;;770366;183;918721;-67
2023/01/14 01:53:49;;;;;;;9.67;6.73;;;;;;;;;;762575;184;918955;-67
2023/01/14 01:56:15;;;;;;;12.37;7.53;;;;;;;;;;762268;183;919892;-67
2023/01/14 01:58:41;;;;;;;9.27;7.50;;;;;;;;;;762543;182;918486;-62
2023/01/14 02:01:07;;;;;;;12.47;9.10;;;;;;;;;;774245;182;918323;-68
2023/01/14 02:03:35;;;;;;;11.27;8.47;;;;;;;;;;771721;182;919943;-61
2023/01/14 02:06:01;;;;;;;13.33;9.63;;;;;;;;;;772376;180;918585;-61
2023/01/14 02:08:27;;;;;;;13.15;8.93;;;;;;;;;;779463;179;914860;-68
2023/01/14 02:11:06;;;;;;;17.27;9.13;;;;;;;;;;773016;179;1024461;-61
2023/01/14 02:13:33;;;;;;;12.97;8.50;;;;;;;;;;759000;181;920388;-67
2023/01/14 02:16:00;;;;;;;13.00;9.57;;;;;;;;;;756344;181;920141;-61
2023/01/14 02:18:26;;;;;;;13.57;10.17;;;;;;;;;;760703;184;817727;-62
2023/01/14 02:21:09;;;;;;;14.50;11.75;;;;;;;;;;764140;180;919578;-67
2023/01/14 02:23:49;;;;;;;11.13;8.40;;;;;;;;;;770869;178;875034;-67
2023/01/14 02:26:15;;;;;;;16.03;10.07;;;;;;;;;;767871;182;920886;-61
2023/01/14 02:28:47;;;;;;;19.37;11.27;;;;;;;;;;768333;182;882618;-67
2023/01/14 02:31:13;;;;;;;16.60;12.17;;;;;;;;;;766112;181;916437;-61
2023/01/14 02:33:42;;;;;;;14.63;10.43;;;;;;;;;;769334;182;777442;-61
2023/01/14 02:36:14;;;;;;;17.27;12.00;;;;;;;;;;767137;182;920916;-61
2023/01/14 02:38:40;;;;;;;17.98;11.52;;;;;;;;;;771219;179;923223;-61
2023/01/14 02:41:12;;;;;;;18.47;13.13;;;;;;;;;;772516;181;918644;-61
2023/01/14 02:46:09;;;;;;;17.97;11.33;;;;;;;;;;770146;182;919635;-61
2023/01/14 02:48:35;;;;;;;16.20;10.10;;;;;;;;;;767122;183;919269;-66
2023/01/14 02:51:01;;;;;;;13.90;8.40;;;;;;;;;;770274;180;919473;-61
2023/01/14 02:53:27;;;;;;;14.27;8.77;;;;;;;;;;774004;183;915230;-67
2023/01/14 02:55:52;;;;;;;17.23;11.23;;;;;;;;;;770305;180;918671;-61
2023/01/14 02:58:19;;;;;;;10.60;9.00;;;;;;;;;;770880;181;919023;-67
2023/01/14 03:00:45;;;;;;;14.00;8.93;;;;;;;;;;772431;181;920329;-67
2023/01/14 03:03:21;;;;;;;17.23;10.60;;;;;;;;;;770310;181;818177;-61
2023/01/14 03:05:49;;;;;;;16.07;9.80;;;;;;;;;;765688;181;919298;-61
2023/01/14 03:08:29;;;;;;;15.47;9.53;;;;;;;;;;769656;182;919013;-61
2023/01/14 03:10:56;;;;;;;15.20;10.27;;;;;;;;;;767423;181;919280;-61
2023/01/14 03:13:32;;;;;;;19.20;11.10;;;;;;;;;;773767;182;818208;-67
2023/01/14 03:15:59;;;;;;;13.57;9.10;;;;;;;;;;771341;181;918247;-61
2023/01/14 03:18:31;;;;;;;13.57;9.40;;;;;;;;;;766402;179;891950;-67
2023/01/14 03:20:57;;;;;;;16.35;10.02;;;;;;;;;;767088;180;816716;-67
2023/01/14 03:23:23;;;;;;;13.30;8.60;;;;;;;;;;767923;181;917408;-62
2023/01/14 03:25:49;;;;;;;11.83;9.03;;;;;;;;;;762359;181;857819;-61
2023/01/14 03:28:15;;;;;;;15.63;9.60;;;;;;;;;;770415;179;925089;-61
2023/01/14 03:30:40;;;;;;;12.07;8.73;;;;;;;;;;771553;180;919355;-67
2023/01/14 03:33:06;;;;;;;12.95;8.80;;;;;;;;;;777904;180;919258;-67
2023/01/14 03:35:35;;;;;;;14.77;9.90;;;;;;;;;;763531;181;922339;-62
2023/01/14 03:38:17;;;;;;;14.80;9.13;;;;;;;;;;769681;180;926620;-62
2023/01/14 03:40:42;;;;;;;12.83;10.30;;;;;;;;;;772360;180;919463;-61
2023/01/14 03:43:10;;;;;;;15.00;9.30;;;;;;;;;;775620;182;919452;-61
2023/01/14 03:45:36;;;;;;;17.13;10.80;;;;;;;;;;769698;182;920663;-67
2023/01/14 03:48:02;;;;;;;16.63;9.97;;;;;;;;;;768791;182;918132;-61
2023/01/14 03:50:28;;;;;;;16.03;9.93;;;;;;;;;;766820;182;918918;-66
2023/01/14 03:53:09;;;;;;;15.70;10.67;;;;;;;;;;774948;182;816734;-67
2023/01/14 03:55:53;;;;;;;13.80;11.10;;;;;;;;;;774602;182;916035;-67
2023/01/14 03:58:20;;;;;;;17.73;10.60;;;;;;;;;;785376;178;915636;-67
2023/01/14 04:00:46;;;;;;;15.60;10.50;;;;;;;;;;771440;181;980040;-67
2023/01/14 04:03:14;;;;;;;12.50;8.83;;;;;;;;;;772027;180;917431;-61
2023/01/14 04:05:38;;;;;;;16.47;9.70;;;;;;;;;;776562;182;895209;-62
2023/01/14 04:08:04;;;;;;;14.23;9.33;;;;;;;;;;762212;182;919879;-67
2023/01/14 04:10:30;;;;;;;13.57;9.57;;;;;;;;;;762296;182;939636;-67
2023/01/14 04:15:27;;;;;;;14.03;9.77;;;;;;;;;;776431;181;920212;-67
2023/01/14 04:17:53;;;;;;;18.27;9.60;;;;;;;;;;771816;180;918475;-67
2023/01/14 04:20:19;;;;;;;13.10;8.47;;;;;;;;;;774184;180;814707;-68
2023/01/14 04:22:45;;;;;;;11.47;7.63;;;;;;;;;;777464;181;921083;-67
2023/01/14 04:25:11;;;;;;;14.70;7.30;;;;;;;;;;772361;182;918809;-61
2023/01/14 04:27:37;;;;;;;12.15;6.62;;;;;;;;;;772096;182;919361;-61
2023/01/14 04:30:03;;;;;;;10.00;6.73;;;;;;;;;;775095;180;918923;-67
2023/01/14 04:32:29;;;;;;;10.40;6.20;;;;;;;;;;776708;180;848512;-67
2023/01/14 04:34:55;;;;;;;16.40;7.73;;;;;;;;;;775780;181;920714;-62
2023/01/14 04:37:21;;;;;;;11.57;6.67;;;;;;;;;;772207;181;919689;-67
2023/01/14 04:39:47;;;;;;;10.90;6.77;;;;;;;;;;775851;180;918460;-67
2023/01/14 04:44:46;;;;;;;13.90;6.53;;;;;;;;;;770373;181;1018000;-67
2023/01/14 04:47:10;;;;;;;10.30;5.73;;;;;;;;;;772636;182;918625;-61
2023/01/14 04:49:36;;;;;;;9.90;5.50;;;;;;;;;;763936;182;918101;-66
2023/01/14 04:52:02;;;;;;;8.07;5.00;;;;;;;;;;770174;180;919503;-61
2023/01/14 04:54:28;;;;;;;8.90;4.57;;;;;;;;;;772476;180;919287;-67
2023/01/14 04:56:53;;;;;;;7.00;4.27;;;;;;;;;;773197;180;920362;-62
2023/01/14 04:59:19;;;;;;;8.30;5.30;;;;;;;;;;756901;182;919128;-61
2023/01/14 05:01:45;;;;;;;11.80;7.20;;;;;;;;;;760032;182;919498;-68
2023/01/14 05:04:11;;;;;;;15.53;6.57;;;;;;;;;;778075;182;921580;-67
2023/01/14 05:06:37;;;;;;;9.57;5.50;;;;;;;;;;768051;182;919875;-67
2023/01/14 05:09:03;;;;;;;8.70;5.10;;;;;;;;;;763660;182;920054;-65
2023/01/14 05:11:28;;;;;;;10.77;5.40;;;;;;;;;;770514;182;919457;-68
2023/01/14 05:13:54;;;;;;;9.93;5.40;;;;;;;;;;772248;181;914632;-62
2023/01/14 05:16:20;;;;;;;10.20;5.10;;;;;;;;;;772715;182;918924;-67
2023/01/14 05:18:46;;;;;;;7.83;6.13;;;;;;;;;;774082;182;920345;-67
2023/01/14 05:21:12;;;;;;;8.27;5.10;;;;;;;;;;772251;181;921341;-67
2023/01/14 05:23:38;;;;;;;8.50;4.80;;;;;;;;;;772262;179;914806;-61
2023/01/14 05:26:04;;;;;;;9.32;5.20;;;;;;;;;;771918;179;918786;-62
2023/01/14 05:28:30;;;;;;;9.23;4.67;;;;;;;;;;771325;182;918385;-62
2023/01/14 05:30:55;;;;;;;7.93;5.00;;;;;;;;;;764523;184;919385;-61
2023/01/14 05:33:21;;;;;;;9.13;5.23;;;;;;;;;;767461;182;916609;-67
2023/01/14 05:35:47;;;;;;;7.70;4.57;;;;;;;;;;776208;180;882611;-68
2023/01/14 05:38:13;;;;;;;7.72;5.07;;;;;;;;;;770395;179;922807;-69
2023/01/14 05:40:39;;;;;;;8.47;5.33;;;;;;;;;;771808;179;917741;-67
2023/01/14 05:45:38;;;;;;;7.30;4.83;;;;;;;;;;777942;180;1021927;-62
2023/01/14 05:48:05;;;;;;;10.53;4.93;;;;;;;;;;767547;180;918222;-68
2023/01/14 05:50:30;;;;;;;7.40;5.03;;;;;;;;;;771333;182;824277;-61
2023/01/14 05:52:56;;;;;;;10.43;4.60;;;;;;;;;;777023;182;917435;-62
2023/01/14 05:55:22;;;;;;;6.63;4.40;;;;;;;;;;774701;180;816666;-67
2023/01/14 05:57:48;;;;;;;10.23;3.80;;;;;;;;;;771825;179;922402;-69
2023/01/14 06:08:04;;;;;;;7.30;4.43;;;;;;;;;;758822;181;918195;-61
2023/01/14 06:10:30;;;;;;;8.83;4.00;;;;;;;;;;754593;184;940961;-62
2023/01/14 06:12:58;;;;;;;5.97;4.30;;;;;;;;;;770001;182;820852;-62
2023/01/14 06:15:24;;;;;;;6.80;4.50;;;;;;;;;;778809;182;841969;-67
2023/01/14 06:17:57;;;;;;;11.83;4.27;;;;;;;;;;771749;181;1002573;-61
2023/01/14 06:20:18;;;;;;;7.10;4.43;;;;;;;;;;772014;181;919239;-67
2023/01/14 06:22:44;;;;;;;8.27;4.07;;;;;;;;;;778241;179;917222;-67
2023/01/14 06:25:10;;;;;;;6.50;3.33;;;;;;;;;;772143;182;919566;-61
2023/01/14 06:27:36;;;;;;;9.33;4.47;;;;;;;;;;772938;182;918528;-67
2023/01/14 06:30:02;;;;;;;6.73;3.70;;;;;;;;;;772830;182;918135;-61
2023/01/14 06:32:27;;;;;;;9.07;3.90;;;;;;;;;;774268;182;920754;-61
2023/01/14 06:34:53;;;;;;;5.40;4.20;;;;;;;;;;771542;182;919954;-61
2023/01/14 06:37:19;;;;;;;8.10;4.30;;;;;;;;;;766076;183;816249;-61
2023/01/14 06:39:45;;;;;;;20.63;4.93;;;;;;;;;;759663;183;895719;-68
2023/01/14 06:42:11;;;;;;;9.80;5.03;;;;;;;;;;762994;179;813112;-66
2023/01/14 06:44:37;;;;;;;6.60;3.70;;;;;;;;;;772991;182;917805;-66
2023/01/14 06:47:03;;;;;;;5.70;3.92;;;;;;;;;;772644;181;936083;-67
2023/01/14 06:49:29;;;;;;;8.77;4.03;;;;;;;;;;756483;182;916890;-61
2023/01/14 06:51:54;;;;;;;8.67;3.80;;;;;;;;;;764055;182;918959;-66
2023/01/14 06:54:20;;;;;;;9.85;3.10;;;;;;;;;;773099;179;919352;-67
2023/01/14 06:56:46;;;;;;;6.80;3.70;;;;;;;;;;774385;181;919325;-61
2023/01/14 06:59:12;;;;;;;9.57;5.60;;;;;;;;;;770839;179;919495;-61
2023/01/14 07:01:38;;;;;;;13.50;5.80;;;;;;;;;;769621;181;1040352;-66
2023/01/14 07:04:04;;;;;;;8.20;5.10;;;;;;;;;;778174;181;919212;-61
2023/01/14 07:06:30;;;;;;;6.87;4.73;;;;;;;;;;772902;181;921755;-61
2023/01/14 07:08:56;;;;;;;8.20;5.23;;;;;;;;;;771309;182;817882;-61
2023/01/14 07:11:22;;;;;;;9.10;5.90;;;;;;;;;;770810;180;816343;-61
2023/01/14 07:13:47;;;;;;;9.00;4.87;;;;;;;;;;768803;181;920025;-61
2023/01/14 07:16:13;;;;;;;6.70;4.80;;;;;;;;;;770086;180;816820;-61
2023/01/14 07:18:39;;;;;;;10.40;4.27;;;;;;;;;;775021;181;816912;-67
2023/01/14 07:21:05;;;;;;;12.00;4.77;;;;;;;;;;768217;180;918360;-61
2023/01/14 07:23:31;;;;;;;6.10;3.93;;;;;;;;;;767423;181;924184;-61
2023/01/14 07:25:57;;;;;;;14.67;4.90;;;;;;;;;;768966;179;953192;-67
2023/01/14 07:28:22;;;;;;;7.40;4.80;;;;;;;;;;774914;181;873072;-61
2023/01/14 07:30:48;;;;;;;10.25;4.68;;;;;;;;;;766256;181;918703;-61
2023/01/14 07:33:14;;;;;;;9.40;5.00;;;;;;;;;;769063;182;919232;-66
2023/01/14 07:35:40;;;;;;;10.80;5.57;;;;;;;;;;775113;179;856892;-67
2023/01/14 07:38:06;;;;;;;8.97;4.90;;;;;;;;;;768323;181;918833;-64
2023/01/14 07:40:32;;;;;;;9.87;5.70;;;;;;;;;;770496;182;919295;-67
2023/01/14 07:42:57;;;;;;;7.72;4.78;;;;;;;;;;770587;181;919021;-67
2023/01/14 07:45:23;;;;;;;8.33;4.40;;;;;;;;;;763038;180;918344;-66
2023/01/14 07:47:49;;;;;;;8.23;4.53;;;;;;;;;;763416;181;917871;-66
2023/01/14 07:50:15;;;;;;;10.53;5.53;;;;;;;;;;769521;181;920360;-61
2023/01/14 07:52:41;;;;;;;8.90;4.70;;;;;;;;;;772481;180;920481;-61
2023/01/14 07:55:07;;;;;;;9.80;6.00;;;;;;;;;;755177;185;818748;-61
2023/01/14 07:57:33;;;;;;;8.63;5.90;;;;;;;;;;766783;181;918496;-61
2023/01/14 07:59:59;;;;;;;7.80;5.63;;;;;;;;;;774228;181;919556;-66
2023/01/14 08:02:25;;;;;;;12.67;4.67;;;;;;;;;;769067;181;918882;-68
2023/01/14 08:04:50;;;;;;;7.30;4.03;;;;;;;;;;773152;182;918736;-61
2023/01/14 08:07:16;;;;;;;8.27;4.70;;;;;;;;;;780646;179;918627;-61
2023/01/14 08:09:43;;;;;;;6.03;4.27;;;;;;;;;;771610;181;918561;-66
2023/01/14 08:12:09;;;;;;;9.67;4.60;;;;;;;;;;769695;181;960523;-66
2023/01/14 08:14:36;;;;;;;8.30;4.80;;;;;;;;;;766996;181;928553;-61
2023/01/14 08:17:04;;;;;;;10.77;5.23;;;;;;;;;;774785;180;917956;-60
2023/01/14 08:19:29;;;;;;;11.10;4.53;;;;;;;;;;771188;179;816429;-65
2023/01/14 08:21:54;;;;;;;9.25;5.35;;;;;;;;;;767088;180;817194;-60
2023/01/14 08:24:20;;;;;;;5.77;3.87;;;;;;;;;;774427;181;817426;-67
2023/01/14 08:26:46;;;;;;;8.50;4.10;;;;;;;;;;768997;180;919632;-65
2023/01/14 08:29:14;;;;;;;7.80;3.50;;;;;;;;;;767391;181;1024846;-66
2023/01/14 08:31:40;;;;;;;8.50;3.70;;;;;;;;;;771168;182;1121932;-65
2023/01/14 08:34:04;;;;;;;5.60;3.40;;;;;;;;;;769214;181;767953;-65
2023/01/14 08:36:30;;;;;;;8.40;3.13;;;;;;;;;;770642;180;766380;-65
2023/01/14 08:38:56;;;;;;;6.23;2.97;;;;;;;;;;768782;181;809694;-65
2023/01/14 08:41:21;;;;;;;6.70;3.13;;;;;;;;;;768792;181;918609;-66
2023/01/14 08:43:48;;;;;;;5.07;2.97;;;;;;;;;;772812;180;921117;-65
2023/01/14 08:46:13;;;;;;;4.03;2.10;;;;;;;;;;771932;180;816110;-65
2023/01/14 08:48:39;;;;;;;10.03;2.63;;;;;;;;;;772954;182;914855;-66
2023/01/14 08:51:05;;;;;;;3.80;2.20;;;;;;;;;;768267;181;927276;-66
2023/01/14 08:53:31;;;;;;;8.47;3.30;;;;;;;;;;768506;182;945370;-65
2023/01/14 08:55:57;;;;;;;9.00;2.37;;;;;;;;;;764333;182;1014344;-66
2023/01/14 08:58:22;;;;;;;5.93;3.27;;;;;;;;;;770607;180;922429;-66
2023/01/14 09:00:48;;;;;;;10.00;2.30;;;;;;;;;;772683;181;904909;-65
2023/01/14 09:03:14;;;;;;;5.10;2.43;;;;;;;;;;773273;181;811492;-65
2023/01/14 09:05:40;;;;;;;7.93;3.40;;;;;;;;;;770821;180;916361;-66
2023/01/14 09:18:13;;;;;;;7.47;4.05;;;;;;;;;;770738;180;922393;-59
2023/01/14 09:20:38;;;;;;;6.10;2.83;;;;;;;;;;772673;181;918413;-59
2023/01/14 09:23:05;;;;;;;10.82;4.07;;;;;;;;;;774194;180;818010;-60
2023/01/14 09:25:31;;;;;;;6.17;2.70;;;;;;;;;;776463;179;918007;-60
2023/01/14 09:27:57;;;;;;;9.40;2.90;;;;;;;;;;766490;181;918911;-66
2023/01/14 09:30:23;;;;;;;4.80;2.53;;;;;;;;;;768927;180;916689;-65
2023/01/14 09:32:48;;;;;;;5.23;3.40;;;;;;;;;;774876;180;919333;-59
2023/01/14 09:35:14;;;;;;;7.30;3.23;;;;;;;;;;771266;180;922179;-66
2023/01/14 09:37:40;;;;;;;5.97;2.70;;;;;;;;;;767935;181;949918;-67
2023/01/14 09:40:06;;;;;;;11.40;3.27;;;;;;;;;;763755;182;919154;-59
2023/01/14 09:42:33;;;;;;;6.03;3.00;;;;;;;;;;758743;182;931021;-65
2023/01/14 09:45:04;;;;;;;4.03;2.77;;;;;;;;;;755914;184;914684;-65
2023/01/14 09:47:30;;;;;;;7.47;4.57;;;;;;;;;;769000;180;915990;-66
2023/01/14 09:49:56;;;;;;;7.17;3.20;;;;;;;;;;770855;182;918879;-59
2023/01/14 09:52:27;;;;;;;8.60;3.23;;;;;;;;;;766224;181;920603;-66
2023/01/14 09:54:56;;;;;;;5.40;2.70;;;;;;;;;;767688;182;919955;-65
2023/01/14 09:57:22;;;;;;;12.27;3.10;;;;;;;;;;766472;181;927405;-60
2023/01/14 09:59:48;;;;;;;7.63;2.43;;;;;;;;;;759810;182;917775;-65
2023/01/14 10:02:14;;;;;;;6.23;3.53;;;;;;;;;;768726;182;918814;-67
2023/01/14 10:04:40;;;;;;;6.57;3.07;;;;;;;;;;768443;182;920026;-65
2023/01/14 10:07:06;;;;;;;7.37;2.40;;;;;;;;;;770605;182;917363;-65
2023/01/14 10:09:33;;;;;;;13.00;2.73;;;;;;;;;;775334;181;811792;-59
2023/01/14 10:11:59;;;;;;;7.40;2.23;;;;;;;;;;765134;182;921054;-65
2023/01/14 10:14:24;;;;;;;6.93;2.80;;;;;;;;;;774649;181;818670;-59
2023/01/14 10:16:50;;;;;;;5.28;2.17;;;;;;;;;;770368;182;918922;-59
2023/01/14 10:19:20;;;;;;;6.57;2.90;;;;;;;;;;765235;181;871030;-59
2023/01/14 10:21:46;;;;;;;5.03;2.53;;;;;;;;;;770435;182;931530;-65
2023/01/14 10:24:12;;;;;;;6.10;3.27;;;;;;;;;;766521;183;821012;-65
2023/01/14 10:26:38;;;;;;;5.47;2.37;;;;;;;;;;772162;181;918513;-66
2023/01/14 10:29:04;;;;;;;4.37;2.00;;;;;;;;;;770678;181;815871;-59
2023/01/14 10:31:30;;;;;;;4.30;2.47;;;;;;;;;;769378;181;919490;-65
2023/01/14 10:33:56;;;;;;;8.30;2.50;;;;;;;;;;766495;181;919212;-59
2023/01/14 10:36:22;;;;;;;6.87;2.47;;;;;;;;;;758978;181;915440;-60
2023/01/14 10:38:47;;;;;;;7.83;2.43;;;;;;;;;;774670;179;919319;-66
2023/01/14 10:41:13;;;;;;;5.83;2.40;;;;;;;;;;772872;180;917881;-59
2023/01/14 10:43:39;;;;;;;3.30;2.37;;;;;;;;;;770458;181;816531;-60
2023/01/14 10:46:06;;;;;;;6.90;2.37;;;;;;;;;;768665;179;921922;-65
2023/01/14 10:48:33;;;;;;;4.28;2.30;;;;;;;;;;771126;181;856224;-65
2023/01/14 10:51:15;;;;;;;5.27;2.40;;;;;;;;;;772311;181;919700;-65
2023/01/14 10:53:42;;;;;;;7.40;3.37;;;;;;;;;;766838;179;919509;-59
2023/01/14 10:56:07;;;;;;;7.22;3.17;;;;;;;;;;770474;179;897104;-60
2023/01/14 10:58:36;;;;;;;10.13;2.90;;;;;;;;;;774002;181;918643;-60
2023/01/14 11:01:03;;;;;;;6.50;2.07;;;;;;;;;;768834;181;918063;-65
2023/01/14 11:03:29;;;;;;;6.70;2.73;;;;;;;;;;768780;182;915496;-59
2023/01/14 11:05:55;;;;;;;4.90;2.10;;;;;;;;;;768989;181;753025;-65
2023/01/14 11:08:21;;;;;;;7.70;2.40;;;;;;;;;;771262;181;915913;-66
2023/01/14 11:10:47;;;;;;;8.97;2.20;;;;;;;;;;766785;181;923684;-60
2023/01/14 11:13:14;;;;;;;9.30;2.77;;;;;;;;;;767540;182;817140;-60
2023/01/14 11:15:41;;;;;;;6.07;2.27;;;;;;;;;;771759;182;919647;-65
2023/01/14 11:18:12;;;;;;;9.60;2.63;;;;;;;;;;770518;182;919095;-65
2023/01/14 11:20:38;;;;;;;4.63;2.70;;;;;;;;;;762633;181;920278;-60
2023/01/14 11:23:03;;;;;;;6.70;2.43;;;;;;;;;;765717;181;919331;-60
2023/01/14 11:25:29;;;;;;;4.27;2.40;;;;;;;;;;774508;180;918472;-59
2023/01/14 11:27:55;;;;;;;6.13;2.17;;;;;;;;;;771535;181;915683;-65
2023/01/14 11:30:21;;;;;;;5.18;1.92;;;;;;;;;;766308;181;931100;-59
2023/01/14 11:32:49;;;;;;;5.40;2.47;;;;;;;;;;771273;181;920701;-67
2023/01/14 11:35:15;;;;;;;7.80;2.10;;;;;;;;;;768848;181;817987;-66
2023/01/14 11:37:42;;;;;;;4.30;1.90;;;;;;;;;;768214;180;915476;-65
2023/01/14 11:40:09;;;;;;;9.43;2.50;;;;;;;;;;769798;181;919029;-64
2023/01/14 11:42:35;;;;;;;7.90;3.20;;;;;;;;;;778433;178;816149;-60
2023/01/14 11:45:00;;;;;;;5.83;2.57;;;;;;;;;;766474;181;918867;-66
2023/01/14 11:47:26;;;;;;;4.47;2.72;;;;;;;;;;772697;181;918370;-59
2023/01/14 11:50:11;;;;;;;3.57;2.23;;;;;;;;;;775814;181;924645;-65
2023/01/14 11:52:37;;;;;;;4.57;2.33;;;;;;;;;;773509;181;826122;-65
2023/01/14 11:55:03;;;;;;;4.60;2.00;;;;;;;;;;769374;180;816686;-59
2023/01/14 11:57:28;;;;;;;4.77;2.40;;;;;;;;;;768616;181;917991;-65
2023/01/14 11:59:54;;;;;;;5.67;2.50;;;;;;;;;;772975;181;917448;-59
2023/01/14 12:02:22;;;;;;;5.10;1.87;;;;;;;;;;772497;182;917431;-65
2023/01/14 12:05:07;;;;;;;4.90;1.80;;;;;;;;;;771206;182;944776;-59
2023/01/14 12:07:33;;;;;;;4.07;2.20;;;;;;;;;;772929;177;917801;-67
2023/01/14 12:10:13;;;;;;;5.90;2.40;;;;;;;;;;771073;182;945685;-60
2023/01/14 12:17:49;;;;;;;5.33;2.20;;;;;;;;;;769443;182;923321;-65
2023/01/14 12:20:11;;;;;;;7.47;2.87;;;;;;;;;;768577;182;919373;-59
2023/01/14 12:22:38;;;;;;;3.90;2.13;;;;;;;;;;757739;181;912972;-65
2023/01/14 12:25:04;;;;;;;4.93;2.10;;;;;;;;;;771406;182;920593;-60
2023/01/14 12:30:04;;;;;;;5.93;2.67;;;;;;;;;;772990;180;816829;-60
2023/01/14 12:32:30;;;;;;;4.83;2.10;;;;;;;;;;772440;181;920201;-60
2023/01/14 12:34:57;;;;;;;5.43;2.77;;;;;;;;;;775776;180;712791;-60
2023/01/14 12:37:22;;;;;;;4.73;2.13;;;;;;;;;;754592;186;919066;-60
2023/01/14 12:47:32;;;;;;;5.07;1.90;;;;;;;;;;771015;180;1021423;-61
2023/01/14 12:49:57;;;;;;;7.00;3.30;;;;;;;;;;765193;181;918336;-66
2023/01/14 12:52:26;;;;;;;6.37;2.47;;;;;;;;;;767248;181;919123;-60
2023/01/14 12:54:52;;;;;;;8.20;2.10;;;;;;;;;;777514;181;915605;-60
2023/01/14 12:57:18;;;;;;;6.87;2.77;;;;;;;;;;772494;180;916661;-66
2023/01/14 12:59:45;;;;;;;3.43;2.13;;;;;;;;;;771953;181;923108;-63
2023/01/14 13:02:16;;;;;;;7.40;2.10;;;;;;;;;;767484;181;919743;-66
2023/01/14 13:04:45;;;;;;;4.30;1.83;;;;;;;;;;769564;178;919437;-66
2023/01/14 13:07:11;;;;;;;5.07;2.40;;;;;;;;;;768515;181;918039;-67
2023/01/14 13:09:39;;;;;;;9.63;2.67;;;;;;;;;;765701;181;920681;-66
2023/01/14 13:12:05;;;;;;;6.47;2.40;;;;;;;;;;764292;182;920785;-61
2023/01/14 13:14:35;;;;;;;7.68;3.90;;;;;;;;;;763299;182;919422;-68
2023/01/14 13:17:02;;;;;;;5.73;1.70;;;;;;;;;;775579;181;817469;-67
2023/01/14 13:19:28;;;;;;;2.90;1.80;;;;;;;;;;766723;181;862776;-60
2023/01/14 13:21:56;;;;;;;3.90;2.10;;;;;;;;;;771479;182;1025590;-67
2023/01/14 13:24:26;;;;;;;9.75;2.70;;;;;;;;;;768817;182;918363;-67
2023/01/14 13:26:52;;;;;;;6.63;2.00;;;;;;;;;;769644;181;919578;-60
2023/01/14 13:29:19;;;;;;;5.47;2.50;;;;;;;;;;770174;182;919975;-60
2023/01/14 13:31:45;;;;;;;3.83;1.87;;;;;;;;;;774363;182;813654;-68
2023/01/14 13:34:28;;;;;;;3.00;1.70;;;;;;;;;;763293;179;878238;-60
2023/01/14 13:37:10;;;;;;;8.70;2.90;;;;;;;;;;770358;178;918785;-68
2023/01/14 13:39:36;;;;;;;5.17;2.70;;;;;;;;;;770545;182;862936;-61
2023/01/14 13:42:02;;;;;;;4.27;2.47;;;;;;;;;;768292;181;862357;-68
2023/01/14 13:44:30;;;;;;;4.78;2.28;;;;;;;;;;771982;181;917679;-67
2023/01/14 13:46:56;;;;;;;5.53;2.30;;;;;;;;;;767796;180;919778;-67
2023/01/14 13:49:38;;;;;;;4.13;2.27;;;;;;;;;;768378;181;919373;-61
2023/01/14 13:52:05;;;;;;;6.23;2.47;;;;;;;;;;767377;177;913674;-68
2023/01/14 13:54:32;;;;;;;9.47;2.93;;;;;;;;;;767972;180;919694;-61
2023/01/14 13:57:03;;;;;;;8.60;2.80;;;;;;;;;;774641;180;920045;-67
2023/01/14 13:59:29;;;;;;;8.70;2.57;;;;;;;;;;770368;179;816668;-61
2023/01/14 14:01:56;;;;;;;5.63;2.63;;;;;;;;;;766408;181;828664;-68
2023/01/14 14:04:27;;;;;;;8.67;3.00;;;;;;;;;;770629;179;904785;-67
2023/01/14 14:06:53;;;;;;;6.87;2.67;;;;;;;;;;776934;178;842771;-61
2023/01/14 14:09:19;;;;;;;4.10;2.30;;;;;;;;;;767536;180;915465;-61
2023/01/14 14:11:48;;;;;;;7.60;3.30;;;;;;;;;;767657;180;918919;-60
2023/01/14 14:14:14;;;;;;;5.27;2.50;;;;;;;;;;771644;181;918278;-67
2023/01/14 14:16:40;;;;;;;5.83;2.87;;;;;;;;;;773335;180;843240;-67
2023/01/14 14:19:18;;;;;;;6.73;3.13;;;;;;;;;;765027;181;881455;-61
2023/01/14 14:21:46;;;;;;;5.83;2.30;;;;;;;;;;767793;180;917073;-61
2023/01/14 14:24:15;;;;;;;7.07;2.73;;;;;;;;;;770960;180;841781;-67
2023/01/14 14:26:41;;;;;;;7.82;2.67;;;;;;;;;;772593;180;959942;-61
2023/01/14 14:29:07;;;;;;;5.17;2.00;;;;;;;;;;764807;181;917367;-61
2023/01/14 14:31:35;;;;;;;6.87;2.37;;;;;;;;;;770535;181;919147;-67
2023/01/14 14:33:59;;;;;;;6.50;2.70;;;;;;;;;;773017;181;919742;-67
2023/01/14 14:36:27;;;;;;;8.25;2.53;;;;;;;;;;767851;181;919714;-66
2023/01/14 14:38:51;;;;;;;9.30;2.93;;;;;;;;;;766207;181;921454;-67
2023/01/14 14:41:17;;;;;;;6.43;2.67;;;;;;;;;;769891;181;920351;-68
2023/01/14 14:43:43;;;;;;;6.47;2.63;;;;;;;;;;765468;180;919025;-69
2023/01/14 14:46:09;;;;;;;4.90;2.40;;;;;;;;;;765492;181;919276;-68
2023/01/14 14:48:34;;;;;;;12.80;2.60;;;;;;;;;;764071;182;919787;-67
2023/01/14 14:51:00;;;;;;;6.50;2.33;;;;;;;;;;772543;181;918916;-68
2023/01/14 14:53:27;;;;;;;13.20;2.90;;;;;;;;;;759452;180;915590;-67
2023/01/14 14:55:53;;;;;;;9.17;3.00;;;;;;;;;;765854;181;919734;-67
2023/01/14 14:58:19;;;;;;;6.27;3.30;;;;;;;;;;775852;181;927593;-67
2023/01/14 15:00:44;;;;;;;5.13;2.37;;;;;;;;;;767405;181;918822;-61
2023/01/14 15:03:10;;;;;;;4.47;2.70;;;;;;;;;;768284;180;917701;-67
2023/01/14 15:05:36;;;;;;;8.73;2.95;;;;;;;;;;772691;179;917587;-68